sensor_id;sensor_type;location;lat;lon;timestamp;P1;durP1;ratioP1;P2;durP2;ratioP2
14251;SDS011;7210;51.502;10.722;2023-10-13T00:00:37;15.57;;;13.30;;
14251;SDS011;7210;51.502;10.722;2023-10-13T00:03:06;14.50;;;13.00;;
14251;SDS011;7210;51.502;10.722;2023-10-13T00:05:40;15.67;;;13.50;;
14251;SDS011;7210;51.502;10.722;2023-10-13T00:08:11;16.13;;;13.30;;
14251;SDS011;7210;51.502;10.722;2023-10-13T00:10:39;18.33;;;13.97;;
14251;SDS011;7210;51.502;10.722;2023-10-13T00:13:06;14.60;;;13.20;;
14251;SDS011;7210;51.502;10.722;2023-10-13T00:15:38;15.97;;;14.07;;
14251;SDS011;7210;51.502;10.722;2023-10-13T00:18:10;16.37;;;14.03;;
14251;SDS011;7210;51.502;10.722;2023-10-13T00:20:40;14.67;;;13.17;;
14251;SDS011;7210;51.502;10.722;2023-10-13T00:23:14;17.73;;;14.23;;
14251;SDS011;7210;51.502;10.722;2023-10-13T00:25:46;16.37;;;13.67;;
14251;SDS011;7210;51.502;10.722;2023-10-13T00:28:22;17.97;;;14.10;;
14251;SDS011;7210;51.502;10.722;2023-10-13T00:30:51;16.60;;;14.87;;
14251;SDS011;7210;51.502;10.722;2023-10-13T00:33:29;16.13;;;14.33;;
14251;SDS011;7210;51.502;10.722;2023-10-13T00:35:57;17.93;;;14.57;;
14251;SDS011;7210;51.502;10.722;2023-10-13T00:38:28;15.43;;;12.73;;
14251;SDS011;7210;51.502;10.722;2023-10-13T00:40:55;14.27;;;12.87;;
14251;SDS011;7210;51.502;10.722;2023-10-13T00:43:29;14.37;;;12.90;;
14251;SDS011;7210;51.502;10.722;2023-10-13T00:46:00;13.40;;;12.00;;
14251;SDS011;7210;51.502;10.722;2023-10-13T00:48:40;13.33;;;11.63;;
14251;SDS011;7210;51.502;10.722;2023-10-13T00:51:21;13.43;;;11.80;;
14251;SDS011;7210;51.502;10.722;2023-10-13T00:54:00;13.40;;;12.10;;
14251;SDS011;7210;51.502;10.722;2023-10-13T00:56:32;13.17;;;11.87;;
14251;SDS011;7210;51.502;10.722;2023-10-13T00:59:06;12.97;;;11.57;;
14251;SDS011;7210;51.502;10.722;2023-10-13T01:01:35;14.43;;;11.80;;
14251;SDS011;7210;51.502;10.722;2023-10-13T01:04:02;14.13;;;12.10;;
14251;SDS011;7210;51.502;10.722;2023-10-13T01:06:30;13.13;;;11.83;;
14251;SDS011;7210;51.502;10.722;2023-10-13T01:08:58;14.80;;;11.97;;
14251;SDS011;7210;51.502;10.722;2023-10-13T01:11:36;12.57;;;11.20;;
14251;SDS011;7210;51.502;10.722;2023-10-13T01:14:09;14.37;;;10.47;;
14251;SDS011;7210;51.502;10.722;2023-10-13T01:16:36;13.07;;;11.23;;
14251;SDS011;7210;51.502;10.722;2023-10-13T01:19:09;14.23;;;11.10;;
14251;SDS011;7210;51.502;10.722;2023-10-13T01:21:37;16.00;;;11.03;;
14251;SDS011;7210;51.502;10.722;2023-10-13T01:24:07;12.03;;;10.47;;
14251;SDS011;7210;51.502;10.722;2023-10-13T01:26:34;12.50;;;11.20;;
14251;SDS011;7210;51.502;10.722;2023-10-13T01:29:04;10.40;;;9.40;;
14251;SDS011;7210;51.502;10.722;2023-10-13T01:31:39;13.13;;;10.27;;
14251;SDS011;7210;51.502;10.722;2023-10-13T01:34:11;11.40;;;10.20;;
14251;SDS011;7210;51.502;10.722;2023-10-13T01:36:38;13.97;;;11.60;;
14251;SDS011;7210;51.502;10.722;2023-10-13T01:39:07;13.80;;;10.53;;
14251;SDS011;7210;51.502;10.722;2023-10-13T01:41:36;12.00;;;10.80;;
14251;SDS011;7210;51.502;10.722;2023-10-13T01:44:04;11.80;;;10.27;;
14251;SDS011;7210;51.502;10.722;2023-10-13T01:46:30;13.50;;;10.60;;
14251;SDS011;7210;51.502;10.722;2023-10-13T01:49:02;13.87;;;11.00;;
14251;SDS011;7210;51.502;10.722;2023-10-13T01:51:29;12.17;;;10.73;;
14251;SDS011;7210;51.502;10.722;2023-10-13T01:53:56;12.93;;;11.10;;
14251;SDS011;7210;51.502;10.722;2023-10-13T01:56:24;11.83;;;10.00;;
14251;SDS011;7210;51.502;10.722;2023-10-13T01:58:55;10.77;;;9.67;;
14251;SDS011;7210;51.502;10.722;2023-10-13T02:01:21;11.77;;;10.07;;
14251;SDS011;7210;51.502;10.722;2023-10-13T02:04:09;11.33;;;10.10;;
14251;SDS011;7210;51.502;10.722;2023-10-13T02:06:36;10.87;;;9.77;;
14251;SDS011;7210;51.502;10.722;2023-10-13T02:09:03;12.80;;;9.17;;
14251;SDS011;7210;51.502;10.722;2023-10-13T02:11:40;9.80;;;8.80;;
14251;SDS011;7210;51.502;10.722;2023-10-13T02:14:08;11.47;;;10.27;;
14251;SDS011;7210;51.502;10.722;2023-10-13T02:16:37;11.90;;;10.37;;
14251;SDS011;7210;51.502;10.722;2023-10-13T02:19:03;10.83;;;9.73;;
14251;SDS011;7210;51.502;10.722;2023-10-13T02:21:31;11.17;;;10.00;;
14251;SDS011;7210;51.502;10.722;2023-10-13T02:23:57;11.10;;;8.90;;
14251;SDS011;7210;51.502;10.722;2023-10-13T02:26:29;11.10;;;9.17;;
14251;SDS011;7210;51.502;10.722;2023-10-13T02:28:58;10.53;;;9.43;;
14251;SDS011;7210;51.502;10.722;2023-10-13T02:31:30;10.50;;;8.97;;
14251;SDS011;7210;51.502;10.722;2023-10-13T02:33:56;12.50;;;10.00;;
14251;SDS011;7210;51.502;10.722;2023-10-13T02:36:25;10.77;;;9.40;;
14251;SDS011;7210;51.502;10.722;2023-10-13T02:39:01;16.57;;;12.07;;
14251;SDS011;7210;51.502;10.722;2023-10-13T02:41:33;13.10;;;10.33;;
14251;SDS011;7210;51.502;10.722;2023-10-13T02:44:04;13.47;;;10.93;;
14251;SDS011;7210;51.502;10.722;2023-10-13T02:46:32;12.10;;;10.20;;
14251;SDS011;7210;51.502;10.722;2023-10-13T02:49:01;10.13;;;9.17;;
14251;SDS011;7210;51.502;10.722;2023-10-13T02:51:39;9.53;;;8.63;;
14251;SDS011;7210;51.502;10.722;2023-10-13T02:54:09;12.27;;;11.00;;
14251;SDS011;7210;51.502;10.722;2023-10-13T02:56:36;11.37;;;9.93;;
14251;SDS011;7210;51.502;10.722;2023-10-13T02:59:16;10.27;;;9.27;;
14251;SDS011;7210;51.502;10.722;2023-10-13T03:01:45;11.90;;;9.47;;
14251;SDS011;7210;51.502;10.722;2023-10-13T03:04:12;10.20;;;9.17;;
14251;SDS011;7210;51.502;10.722;2023-10-13T03:06:38;12.33;;;9.40;;
14251;SDS011;7210;51.502;10.722;2023-10-13T03:09:07;10.63;;;9.00;;
14251;SDS011;7210;51.502;10.722;2023-10-13T03:11:40;11.37;;;9.80;;
14251;SDS011;7210;51.502;10.722;2023-10-13T03:14:13;11.57;;;9.60;;
14251;SDS011;7210;51.502;10.722;2023-10-13T03:16:51;11.13;;;10.03;;
14251;SDS011;7210;51.502;10.722;2023-10-13T03:19:18;12.17;;;10.07;;
14251;SDS011;7210;51.502;10.722;2023-10-13T03:21:44;11.97;;;10.10;;
14251;SDS011;7210;51.502;10.722;2023-10-13T03:24:21;11.03;;;9.90;;
14251;SDS011;7210;51.502;10.722;2023-10-13T03:27:03;10.50;;;9.47;;
14251;SDS011;7210;51.502;10.722;2023-10-13T03:29:35;10.73;;;9.60;;
14251;SDS011;7210;51.502;10.722;2023-10-13T03:32:04;11.03;;;9.80;;
14251;SDS011;7210;51.502;10.722;2023-10-13T03:34:37;10.53;;;9.47;;
14251;SDS011;7210;51.502;10.722;2023-10-13T03:37:14;13.20;;;9.33;;
14251;SDS011;7210;51.502;10.722;2023-10-13T03:39:45;10.80;;;9.50;;
14251;SDS011;7210;51.502;10.722;2023-10-13T03:42:13;10.70;;;9.60;;
14251;SDS011;7210;51.502;10.722;2023-10-13T03:44:44;10.13;;;8.77;;
14251;SDS011;7210;51.502;10.722;2023-10-13T03:47:14;14.93;;;10.77;;
14251;SDS011;7210;51.502;10.722;2023-10-13T03:49:53;11.07;;;8.80;;
14251;SDS011;7210;51.502;10.722;2023-10-13T03:52:40;12.87;;;11.17;;
14251;SDS011;7210;51.502;10.722;2023-10-13T03:55:08;12.90;;;10.70;;
14251;SDS011;7210;51.502;10.722;2023-10-13T03:57:42;11.13;;;9.83;;
14251;SDS011;7210;51.502;10.722;2023-10-13T04:00:15;12.27;;;10.73;;
14251;SDS011;7210;51.502;10.722;2023-10-13T04:02:51;11.33;;;10.13;;
14251;SDS011;7210;51.502;10.722;2023-10-13T04:05:33;13.23;;;10.50;;
14251;SDS011;7210;51.502;10.722;2023-10-13T04:08:10;11.87;;;10.40;;
14251;SDS011;7210;51.502;10.722;2023-10-13T04:10:54;11.20;;;9.97;;
14251;SDS011;7210;51.502;10.722;2023-10-13T04:13:45;13.37;;;10.37;;
14251;SDS011;7210;51.502;10.722;2023-10-13T04:16:30;10.97;;;9.87;;
14251;SDS011;7210;51.502;10.722;2023-10-13T04:19:17;10.80;;;9.40;;
14251;SDS011;7210;51.502;10.722;2023-10-13T04:21:54;9.83;;;8.83;;
14251;SDS011;7210;51.502;10.722;2023-10-13T04:24:23;10.77;;;9.67;;
14251;SDS011;7210;51.502;10.722;2023-10-13T04:27:25;10.97;;;9.70;;
14251;SDS011;7210;51.502;10.722;2023-10-13T04:30:06;10.10;;;9.10;;
14251;SDS011;7210;51.502;10.722;2023-10-13T04:32:45;13.03;;;10.23;;
14251;SDS011;7210;51.502;10.722;2023-10-13T04:35:32;12.40;;;10.30;;
14251;SDS011;7210;51.502;10.722;2023-10-13T04:38:12;10.87;;;9.47;;
14251;SDS011;7210;51.502;10.722;2023-10-13T04:40:44;10.87;;;9.77;;
14251;SDS011;7210;51.502;10.722;2023-10-13T04:43:26;11.67;;;10.00;;
14251;SDS011;7210;51.502;10.722;2023-10-13T04:45:59;13.73;;;10.80;;
14251;SDS011;7210;51.502;10.722;2023-10-13T04:48:40;13.80;;;11.30;;
14251;SDS011;7210;51.502;10.722;2023-10-13T04:51:13;13.83;;;12.23;;
14251;SDS011;7210;51.502;10.722;2023-10-13T04:54:15;12.27;;;11.00;;
14251;SDS011;7210;51.502;10.722;2023-10-13T04:56:51;13.23;;;11.90;;
14251;SDS011;7210;51.502;10.722;2023-10-13T04:59:39;13.40;;;11.60;;
14251;SDS011;7210;51.502;10.722;2023-10-13T05:02:21;12.83;;;10.53;;
14251;SDS011;7210;51.502;10.722;2023-10-13T05:05:10;12.93;;;11.73;;
14251;SDS011;7210;51.502;10.722;2023-10-13T05:08:09;13.37;;;11.03;;
14251;SDS011;7210;51.502;10.722;2023-10-13T05:10:53;14.23;;;11.90;;
14251;SDS011;7210;51.502;10.722;2023-10-13T05:13:38;16.33;;;12.60;;
14251;SDS011;7210;51.502;10.722;2023-10-13T05:16:23;14.10;;;11.87;;
14251;SDS011;7210;51.502;10.722;2023-10-13T05:19:09;14.30;;;11.70;;
14251;SDS011;7210;51.502;10.722;2023-10-13T05:22:05;13.73;;;12.30;;
14251;SDS011;7210;51.502;10.722;2023-10-13T05:24:51;15.43;;;12.50;;
14251;SDS011;7210;51.502;10.722;2023-10-13T05:27:35;12.97;;;11.70;;
14251;SDS011;7210;51.502;10.722;2023-10-13T05:30:20;14.10;;;12.23;;
14251;SDS011;7210;51.502;10.722;2023-10-13T05:33:04;14.40;;;13.00;;
14251;SDS011;7210;51.502;10.722;2023-10-13T05:36:08;15.53;;;13.90;;
14251;SDS011;7210;51.502;10.722;2023-10-13T05:38:54;17.70;;;13.43;;
14251;SDS011;7210;51.502;10.722;2023-10-13T05:41:41;14.77;;;13.23;;
14251;SDS011;7210;51.502;10.722;2023-10-13T05:44:25;15.00;;;12.73;;
14251;SDS011;7210;51.502;10.722;2023-10-13T05:47:18;15.77;;;13.67;;
14251;SDS011;7210;51.502;10.722;2023-10-13T05:50:15;15.73;;;12.63;;
14251;SDS011;7210;51.502;10.722;2023-10-13T05:52:54;13.37;;;12.03;;
14251;SDS011;7210;51.502;10.722;2023-10-13T05:55:39;12.17;;;10.93;;
14251;SDS011;7210;51.502;10.722;2023-10-13T05:58:25;12.97;;;10.67;;
14251;SDS011;7210;51.502;10.722;2023-10-13T06:01:12;13.33;;;11.13;;
14251;SDS011;7210;51.502;10.722;2023-10-13T06:03:56;13.77;;;10.37;;
14251;SDS011;7210;51.502;10.722;2023-10-13T06:06:41;14.30;;;11.27;;
14251;SDS011;7210;51.502;10.722;2023-10-13T06:09:26;12.17;;;10.83;;
14251;SDS011;7210;51.502;10.722;2023-10-13T06:12:10;11.43;;;9.90;;
14251;SDS011;7210;51.502;10.722;2023-10-13T06:14:56;12.53;;;10.40;;
14251;SDS011;7210;51.502;10.722;2023-10-13T06:17:40;11.53;;;10.30;;
14251;SDS011;7210;51.502;10.722;2023-10-13T06:20:38;11.53;;;9.93;;
14251;SDS011;7210;51.502;10.722;2023-10-13T06:23:27;11.77;;;9.53;;
14251;SDS011;7210;51.502;10.722;2023-10-13T06:26:15;10.97;;;9.30;;
14251;SDS011;7210;51.502;10.722;2023-10-13T06:29:00;10.00;;;8.67;;
14251;SDS011;7210;51.502;10.722;2023-10-13T06:31:28;11.30;;;9.23;;
14251;SDS011;7210;51.502;10.722;2023-10-13T06:33:55;11.50;;;8.87;;
14251;SDS011;7210;51.502;10.722;2023-10-13T06:36:27;12.13;;;8.97;;
14251;SDS011;7210;51.502;10.722;2023-10-13T06:38:54;11.40;;;9.10;;
14251;SDS011;7210;51.502;10.722;2023-10-13T06:41:42;10.17;;;9.03;;
14251;SDS011;7210;51.502;10.722;2023-10-13T06:44:09;15.27;;;9.50;;
14251;SDS011;7210;51.502;10.722;2023-10-13T06:46:42;12.70;;;9.30;;
14251;SDS011;7210;51.502;10.722;2023-10-13T06:49:09;13.80;;;9.20;;
14251;SDS011;7210;51.502;10.722;2023-10-13T06:51:38;11.07;;;8.20;;
14251;SDS011;7210;51.502;10.722;2023-10-13T06:54:05;13.00;;;8.80;;
14251;SDS011;7210;51.502;10.722;2023-10-13T06:56:44;13.63;;;9.53;;
14251;SDS011;7210;51.502;10.722;2023-10-13T06:59:15;12.67;;;9.07;;
14251;SDS011;7210;51.502;10.722;2023-10-13T07:01:47;9.27;;;8.00;;
14251;SDS011;7210;51.502;10.722;2023-10-13T07:04:21;13.90;;;8.60;;
14251;SDS011;7210;51.502;10.722;2023-10-13T07:06:49;10.60;;;8.60;;
14251;SDS011;7210;51.502;10.722;2023-10-13T07:09:16;11.93;;;8.50;;
14251;SDS011;7210;51.502;10.722;2023-10-13T07:11:58;10.73;;;8.27;;
14251;SDS011;7210;51.502;10.722;2023-10-13T07:14:27;12.10;;;9.13;;
14251;SDS011;7210;51.502;10.722;2023-10-13T07:16:56;12.20;;;8.30;;
14251;SDS011;7210;51.502;10.722;2023-10-13T07:19:27;9.53;;;8.40;;
14251;SDS011;7210;51.502;10.722;2023-10-13T07:21:55;9.37;;;8.37;;
14251;SDS011;7210;51.502;10.722;2023-10-13T07:24:24;12.40;;;8.10;;
14251;SDS011;7210;51.502;10.722;2023-10-13T07:26:56;15.60;;;8.83;;
14251;SDS011;7210;51.502;10.722;2023-10-13T07:29:30;12.03;;;8.97;;
14251;SDS011;7210;51.502;10.722;2023-10-13T07:32:00;8.07;;;7.27;;
14251;SDS011;7210;51.502;10.722;2023-10-13T07:34:28;11.90;;;8.30;;
14251;SDS011;7210;51.502;10.722;2023-10-13T07:36:57;11.63;;;8.03;;
14251;SDS011;7210;51.502;10.722;2023-10-13T07:39:25;10.37;;;7.83;;
14251;SDS011;7210;51.502;10.722;2023-10-13T07:41:59;8.33;;;7.13;;
14251;SDS011;7210;51.502;10.722;2023-10-13T07:44:33;12.17;;;7.40;;
14251;SDS011;7210;51.502;10.722;2023-10-13T07:47:03;53.87;;;12.03;;
14251;SDS011;7210;51.502;10.722;2023-10-13T07:49:33;11.17;;;7.70;;
14251;SDS011;7210;51.502;10.722;2023-10-13T07:52:03;9.47;;;7.03;;
14251;SDS011;7210;51.502;10.722;2023-10-13T07:54:44;12.63;;;7.43;;
14251;SDS011;7210;51.502;10.722;2023-10-13T07:57:21;9.33;;;7.37;;
14251;SDS011;7210;51.502;10.722;2023-10-13T07:59:54;12.20;;;8.03;;
14251;SDS011;7210;51.502;10.722;2023-10-13T08:02:41;9.70;;;7.77;;
14251;SDS011;7210;51.502;10.722;2023-10-13T08:05:15;15.17;;;8.60;;
14251;SDS011;7210;51.502;10.722;2023-10-13T08:07:50;13.13;;;7.53;;
14251;SDS011;7210;51.502;10.722;2023-10-13T08:10:18;13.23;;;8.20;;
14251;SDS011;7210;51.502;10.722;2023-10-13T08:12:50;8.63;;;7.33;;
14251;SDS011;7210;51.502;10.722;2023-10-13T08:15:19;11.33;;;8.00;;
14251;SDS011;7210;51.502;10.722;2023-10-13T08:17:58;12.77;;;8.20;;
14251;SDS011;7210;51.502;10.722;2023-10-13T08:20:30;13.10;;;9.40;;
14251;SDS011;7210;51.502;10.722;2023-10-13T08:23:04;13.87;;;8.00;;
14251;SDS011;7210;51.502;10.722;2023-10-13T08:25:39;9.70;;;7.33;;
14251;SDS011;7210;51.502;10.722;2023-10-13T08:28:24;10.53;;;7.53;;
14251;SDS011;7210;51.502;10.722;2023-10-13T08:31:17;8.23;;;7.43;;
14251;SDS011;7210;51.502;10.722;2023-10-13T08:33:49;9.43;;;7.57;;
14251;SDS011;7210;51.502;10.722;2023-10-13T08:36:23;10.13;;;7.23;;
14251;SDS011;7210;51.502;10.722;2023-10-13T08:39:03;12.40;;;8.00;;
14251;SDS011;7210;51.502;10.722;2023-10-13T08:42:00;10.03;;;6.90;;
14251;SDS011;7210;51.502;10.722;2023-10-13T08:44:37;10.13;;;6.80;;
14251;SDS011;7210;51.502;10.722;2023-10-13T08:47:10;9.30;;;6.70;;
14251;SDS011;7210;51.502;10.722;2023-10-13T08:49:44;9.37;;;7.13;;
14251;SDS011;7210;51.502;10.722;2023-10-13T08:52:16;10.83;;;7.10;;
14251;SDS011;7210;51.502;10.722;2023-10-13T08:55:02;12.30;;;7.90;;
14251;SDS011;7210;51.502;10.722;2023-10-13T08:58:00;9.87;;;6.97;;
14251;SDS011;7210;51.502;10.722;2023-10-13T09:00:38;10.43;;;7.87;;
14251;SDS011;7210;51.502;10.722;2023-10-13T09:03:37;12.63;;;6.97;;
14251;SDS011;7210;51.502;10.722;2023-10-13T09:06:12;11.17;;;7.00;;
14251;SDS011;7210;51.502;10.722;2023-10-13T09:08:40;9.67;;;6.53;;
14251;SDS011;7210;51.502;10.722;2023-10-13T09:11:40;9.97;;;6.87;;
14251;SDS011;7210;51.502;10.722;2023-10-13T09:14:15;7.60;;;6.13;;
14251;SDS011;7210;51.502;10.722;2023-10-13T09:17:01;10.93;;;6.83;;
14251;SDS011;7210;51.502;10.722;2023-10-13T09:19:43;8.97;;;6.10;;
14251;SDS011;7210;51.502;10.722;2023-10-13T09:22:19;9.70;;;5.90;;
14251;SDS011;7210;51.502;10.722;2023-10-13T09:24:53;9.43;;;6.40;;
14251;SDS011;7210;51.502;10.722;2023-10-13T09:27:25;9.30;;;6.20;;
14251;SDS011;7210;51.502;10.722;2023-10-13T09:29:56;8.53;;;6.13;;
14251;SDS011;7210;51.502;10.722;2023-10-13T09:32:23;13.00;;;6.40;;
14251;SDS011;7210;51.502;10.722;2023-10-13T09:34:50;10.37;;;5.80;;
14251;SDS011;7210;51.502;10.722;2023-10-13T09:37:16;9.47;;;6.27;;
14251;SDS011;7210;51.502;10.722;2023-10-13T09:39:47;9.30;;;6.23;;
14251;SDS011;7210;51.502;10.722;2023-10-13T09:42:18;9.60;;;6.37;;
14251;SDS011;7210;51.502;10.722;2023-10-13T09:44:46;10.73;;;6.70;;
14251;SDS011;7210;51.502;10.722;2023-10-13T09:47:19;11.43;;;7.07;;
14251;SDS011;7210;51.502;10.722;2023-10-13T09:49:54;9.73;;;6.80;;
14251;SDS011;7210;51.502;10.722;2023-10-13T09:52:31;9.23;;;6.80;;
14251;SDS011;7210;51.502;10.722;2023-10-13T09:55:04;11.27;;;6.60;;
14251;SDS011;7210;51.502;10.722;2023-10-13T09:57:44;8.70;;;5.93;;
14251;SDS011;7210;51.502;10.722;2023-10-13T10:00:18;10.70;;;5.90;;
14251;SDS011;7210;51.502;10.722;2023-10-13T10:03:09;10.20;;;6.20;;
14251;SDS011;7210;51.502;10.722;2023-10-13T10:05:55;10.87;;;6.30;;
14251;SDS011;7210;51.502;10.722;2023-10-13T10:08:28;8.37;;;6.30;;
14251;SDS011;7210;51.502;10.722;2023-10-13T10:11:18;9.83;;;6.07;;
14251;SDS011;7210;51.502;10.722;2023-10-13T10:14:07;8.80;;;5.80;;
14251;SDS011;7210;51.502;10.722;2023-10-13T10:16:42;10.97;;;5.90;;
14251;SDS011;7210;51.502;10.722;2023-10-13T10:19:16;8.60;;;5.33;;
14251;SDS011;7210;51.502;10.722;2023-10-13T10:21:43;7.20;;;5.30;;
14251;SDS011;7210;51.502;10.722;2023-10-13T10:24:14;8.80;;;5.67;;
14251;SDS011;7210;51.502;10.722;2023-10-13T10:26:52;10.27;;;5.53;;
14251;SDS011;7210;51.502;10.722;2023-10-13T10:29:19;9.73;;;6.13;;
14251;SDS011;7210;51.502;10.722;2023-10-13T10:31:48;7.63;;;5.60;;
14251;SDS011;7210;51.502;10.722;2023-10-13T10:34:16;9.00;;;5.50;;
14251;SDS011;7210;51.502;10.722;2023-10-13T10:36:47;9.93;;;5.27;;
14251;SDS011;7210;51.502;10.722;2023-10-13T10:39:20;10.73;;;6.40;;
14251;SDS011;7210;51.502;10.722;2023-10-13T10:42:07;9.77;;;5.90;;
14251;SDS011;7210;51.502;10.722;2023-10-13T10:44:40;8.63;;;6.13;;
14251;SDS011;7210;51.502;10.722;2023-10-13T10:47:11;10.07;;;5.53;;
14251;SDS011;7210;51.502;10.722;2023-10-13T10:49:44;9.53;;;5.50;;
14251;SDS011;7210;51.502;10.722;2023-10-13T10:52:17;11.43;;;6.03;;
14251;SDS011;7210;51.502;10.722;2023-10-13T10:54:58;11.50;;;5.53;;
14251;SDS011;7210;51.502;10.722;2023-10-13T10:57:25;12.50;;;5.90;;
14251;SDS011;7210;51.502;10.722;2023-10-13T10:59:54;9.50;;;5.50;;
14251;SDS011;7210;51.502;10.722;2023-10-13T11:02:37;8.77;;;5.60;;
14251;SDS011;7210;51.502;10.722;2023-10-13T11:05:05;7.43;;;5.17;;
14251;SDS011;7210;51.502;10.722;2023-10-13T11:07:35;7.70;;;5.43;;
14251;SDS011;7210;51.502;10.722;2023-10-13T11:10:08;11.17;;;5.53;;
14251;SDS011;7210;51.502;10.722;2023-10-13T11:12:53;12.30;;;5.93;;
14251;SDS011;7210;51.502;10.722;2023-10-13T11:15:21;12.47;;;5.60;;
14251;SDS011;7210;51.502;10.722;2023-10-13T11:17:50;11.97;;;6.40;;
14251;SDS011;7210;51.502;10.722;2023-10-13T11:20:20;8.87;;;5.37;;
14251;SDS011;7210;51.502;10.722;2023-10-13T11:22:54;9.77;;;5.67;;
14251;SDS011;7210;51.502;10.722;2023-10-13T11:25:22;12.43;;;6.57;;
14251;SDS011;7210;51.502;10.722;2023-10-13T11:27:55;9.87;;;5.73;;
14251;SDS011;7210;51.502;10.722;2023-10-13T11:30:24;12.30;;;5.23;;
14251;SDS011;7210;51.502;10.722;2023-10-13T11:33:03;10.20;;;5.67;;
14251;SDS011;7210;51.502;10.722;2023-10-13T11:35:31;10.67;;;5.70;;
14251;SDS011;7210;51.502;10.722;2023-10-13T11:38:12;11.83;;;5.73;;
14251;SDS011;7210;51.502;10.722;2023-10-13T11:40:40;7.33;;;5.30;;
14251;SDS011;7210;51.502;10.722;2023-10-13T11:43:31;10.57;;;6.20;;
14251;SDS011;7210;51.502;10.722;2023-10-13T11:46:09;7.80;;;5.30;;
14251;SDS011;7210;51.502;10.722;2023-10-13T11:48:47;8.77;;;5.67;;
14251;SDS011;7210;51.502;10.722;2023-10-13T11:51:19;7.87;;;5.10;;
14251;SDS011;7210;51.502;10.722;2023-10-13T11:53:49;11.27;;;5.90;;
14251;SDS011;7210;51.502;10.722;2023-10-13T11:56:17;9.57;;;6.40;;
14251;SDS011;7210;51.502;10.722;2023-10-13T11:58:46;11.73;;;6.10;;
14251;SDS011;7210;51.502;10.722;2023-10-13T12:01:14;9.00;;;5.77;;
14251;SDS011;7210;51.502;10.722;2023-10-13T12:03:48;10.53;;;5.90;;
14251;SDS011;7210;51.502;10.722;2023-10-13T12:06:34;8.07;;;5.80;;
14251;SDS011;7210;51.502;10.722;2023-10-13T12:09:12;13.17;;;6.80;;
14251;SDS011;7210;51.502;10.722;2023-10-13T12:11:57;11.37;;;6.33;;
14251;SDS011;7210;51.502;10.722;2023-10-13T12:14:26;12.40;;;6.30;;
14251;SDS011;7210;51.502;10.722;2023-10-13T12:16:55;10.00;;;6.30;;
14251;SDS011;7210;51.502;10.722;2023-10-13T12:19:30;8.03;;;6.20;;
14251;SDS011;7210;51.502;10.722;2023-10-13T12:22:00;10.07;;;6.30;;
14251;SDS011;7210;51.502;10.722;2023-10-13T12:24:30;8.83;;;6.37;;
14251;SDS011;7210;51.502;10.722;2023-10-13T12:27:05;10.00;;;6.20;;
14251;SDS011;7210;51.502;10.722;2023-10-13T12:29:44;9.93;;;6.50;;
14251;SDS011;7210;51.502;10.722;2023-10-13T12:32:12;8.63;;;6.43;;
14251;SDS011;7210;51.502;10.722;2023-10-13T12:34:41;10.17;;;6.50;;
14251;SDS011;7210;51.502;10.722;2023-10-13T12:37:42;8.43;;;6.33;;
14251;SDS011;7210;51.502;10.722;2023-10-13T12:40:29;7.67;;;6.00;;
14251;SDS011;7210;51.502;10.722;2023-10-13T12:43:14;10.33;;;5.90;;
14251;SDS011;7210;51.502;10.722;2023-10-13T12:46:03;16.50;;;6.33;;
14251;SDS011;7210;51.502;10.722;2023-10-13T12:48:48;7.40;;;5.27;;
14251;SDS011;7210;51.502;10.722;2023-10-13T12:51:42;8.40;;;5.87;;
14251;SDS011;7210;51.502;10.722;2023-10-13T12:54:26;7.67;;;6.27;;
14251;SDS011;7210;51.502;10.722;2023-10-13T12:57:00;12.73;;;6.40;;
14251;SDS011;7210;51.502;10.722;2023-10-13T12:59:27;10.57;;;6.07;;
14251;SDS011;7210;51.502;10.722;2023-10-13T13:01:54;8.40;;;6.60;;
14251;SDS011;7210;51.502;10.722;2023-10-13T13:04:21;7.55;;;6.18;;
14251;SDS011;7210;51.502;10.722;2023-10-13T13:06:52;9.60;;;5.93;;
14251;SDS011;7210;51.502;10.722;2023-10-13T13:09:19;9.63;;;5.50;;
14251;SDS011;7210;51.502;10.722;2023-10-13T13:11:51;8.20;;;5.87;;
14251;SDS011;7210;51.502;10.722;2023-10-13T13:14:22;9.13;;;6.23;;
14251;SDS011;7210;51.502;10.722;2023-10-13T13:16:54;7.47;;;5.65;;
14251;SDS011;7210;51.502;10.722;2023-10-13T13:19:26;13.00;;;5.97;;
14251;SDS011;7210;51.502;10.722;2023-10-13T13:21:54;10.53;;;5.90;;
14251;SDS011;7210;51.502;10.722;2023-10-13T13:24:21;9.10;;;5.93;;
14251;SDS011;7210;51.502;10.722;2023-10-13T13:26:51;9.17;;;5.27;;
14251;SDS011;7210;51.502;10.722;2023-10-13T13:29:20;8.75;;;5.85;;
14251;SDS011;7210;51.502;10.722;2023-10-13T13:31:47;9.65;;;5.50;;
14251;SDS011;7210;51.502;10.722;2023-10-13T13:34:14;7.00;;;5.65;;
14251;SDS011;7210;51.502;10.722;2023-10-13T13:36:45;8.48;;;6.20;;
14251;SDS011;7210;51.502;10.722;2023-10-13T13:39:19;9.32;;;5.65;;
14251;SDS011;7210;51.502;10.722;2023-10-13T13:41:54;12.63;;;5.78;;
14251;SDS011;7210;51.502;10.722;2023-10-13T13:44:27;7.47;;;5.50;;
14251;SDS011;7210;51.502;10.722;2023-10-13T13:47:03;9.65;;;5.20;;
14251;SDS011;7210;51.502;10.722;2023-10-13T13:49:37;9.02;;;6.00;;
14251;SDS011;7210;51.502;10.722;2023-10-13T13:52:09;12.18;;;6.05;;
14251;SDS011;7210;51.502;10.722;2023-10-13T13:54:44;12.18;;;5.68;;
14251;SDS011;7210;51.502;10.722;2023-10-13T13:57:11;9.77;;;5.83;;
14251;SDS011;7210;51.502;10.722;2023-10-13T13:59:38;9.83;;;5.67;;
14251;SDS011;7210;51.502;10.722;2023-10-13T14:02:09;8.20;;;5.40;;
14251;SDS011;7210;51.502;10.722;2023-10-13T14:04:44;7.27;;;5.50;;
14251;SDS011;7210;51.502;10.722;2023-10-13T14:07:12;9.47;;;5.40;;
14251;SDS011;7210;51.502;10.722;2023-10-13T14:09:40;7.43;;;5.77;;
14251;SDS011;7210;51.502;10.722;2023-10-13T14:12:10;11.00;;;5.90;;
14251;SDS011;7210;51.502;10.722;2023-10-13T14:15:04;10.20;;;6.23;;
14251;SDS011;7210;51.502;10.722;2023-10-13T14:17:44;7.43;;;5.40;;
14251;SDS011;7210;51.502;10.722;2023-10-13T14:20:14;6.53;;;5.53;;
14251;SDS011;7210;51.502;10.722;2023-10-13T14:22:43;9.07;;;5.77;;
14251;SDS011;7210;51.502;10.722;2023-10-13T14:25:12;9.40;;;6.10;;
14251;SDS011;7210;51.502;10.722;2023-10-13T14:27:41;11.73;;;5.93;;
14251;SDS011;7210;51.502;10.722;2023-10-13T14:30:08;7.07;;;5.90;;
14251;SDS011;7210;51.502;10.722;2023-10-13T14:32:44;7.10;;;5.63;;
14251;SDS011;7210;51.502;10.722;2023-10-13T14:35:11;10.17;;;6.10;;
14251;SDS011;7210;51.502;10.722;2023-10-13T14:37:40;9.13;;;6.00;;
14251;SDS011;7210;51.502;10.722;2023-10-13T14:40:08;10.90;;;5.97;;
14251;SDS011;7210;51.502;10.722;2023-10-13T14:42:38;11.97;;;5.63;;
14251;SDS011;7210;51.502;10.722;2023-10-13T14:45:08;10.13;;;6.50;;
14251;SDS011;7210;51.502;10.722;2023-10-13T14:47:38;10.40;;;6.40;;
14251;SDS011;7210;51.502;10.722;2023-10-13T14:50:06;7.23;;;6.00;;
14251;SDS011;7210;51.502;10.722;2023-10-13T14:52:39;10.33;;;5.37;;
14251;SDS011;7210;51.502;10.722;2023-10-13T14:55:08;8.93;;;6.17;;
14251;SDS011;7210;51.502;10.722;2023-10-13T14:57:44;13.67;;;5.73;;
14251;SDS011;7210;51.502;10.722;2023-10-13T15:00:14;10.53;;;6.03;;
14251;SDS011;7210;51.502;10.722;2023-10-13T15:02:50;9.33;;;6.10;;
14251;SDS011;7210;51.502;10.722;2023-10-13T15:05:18;8.97;;;6.20;;
14251;SDS011;7210;51.502;10.722;2023-10-13T15:07:46;11.80;;;6.00;;
14251;SDS011;7210;51.502;10.722;2023-10-13T15:10:13;9.07;;;6.10;;
14251;SDS011;7210;51.502;10.722;2023-10-13T15:12:41;9.83;;;6.23;;
14251;SDS011;7210;51.502;10.722;2023-10-13T15:15:10;12.13;;;6.50;;
14251;SDS011;7210;51.502;10.722;2023-10-13T15:17:42;10.13;;;6.13;;